sensor_id;sensor_type;location;lat;lon;timestamp;temperature;humidity
24146;DHT22;12308;50.948;4.706;2024-03-25T00:02:00;5.40;99.90
24146;DHT22;12308;50.948;4.706;2024-03-25T00:04:26;5.60;99.90
24146;DHT22;12308;50.948;4.706;2024-03-25T00:06:52;5.70;99.90
24146;DHT22;12308;50.948;4.706;2024-03-25T00:09:18;5.60;99.90
24146;DHT22;12308;50.948;4.706;2024-03-25T00:11:44;5.50;99.90
24146;DHT22;12308;50.948;4.706;2024-03-25T00:14:10;5.50;99.90
24146;DHT22;12308;50.948;4.706;2024-03-25T00:16:36;5.50;99.90
24146;DHT22;12308;50.948;4.706;2024-03-25T00:19:02;5.30;99.90
24146;DHT22;12308;50.948;4.706;2024-03-25T00:21:28;5.30;99.90
24146;DHT22;12308;50.948;4.706;2024-03-25T00:23:54;5.30;99.90
24146;DHT22;12308;50.948;4.706;2024-03-25T00:26:23;5.40;99.90
24146;DHT22;12308;50.948;4.706;2024-03-25T00:28:49;5.40;99.90
24146;DHT22;12308;50.948;4.706;2024-03-25T00:31:15;5.40;99.90
24146;DHT22;12308;50.948;4.706;2024-03-25T00:33:41;5.50;99.90
24146;DHT22;12308;50.948;4.706;2024-03-25T00:36:06;5.40;99.90
24146;DHT22;12308;50.948;4.706;2024-03-25T00:38:33;5.40;99.90
24146;DHT22;12308;50.948;4.706;2024-03-25T00:40:58;5.40;99.90
24146;DHT22;12308;50.948;4.706;2024-03-25T00:43:24;5.40;99.90
24146;DHT22;12308;50.948;4.706;2024-03-25T00:45:50;5.40;99.90
24146;DHT22;12308;50.948;4.706;2024-03-25T00:48:15;5.40;99.90
24146;DHT22;12308;50.948;4.706;2024-03-25T00:50:41;5.30;99.90
24146;DHT22;12308;50.948;4.706;2024-03-25T00:53:07;5.30;99.90
24146;DHT22;12308;50.948;4.706;2024-03-25T00:55:33;5.20;99.90
24146;DHT22;12308;50.948;4.706;2024-03-25T00:58:02;5.20;99.90
24146;DHT22;12308;50.948;4.706;2024-03-25T01:00:28;5.20;99.90
24146;DHT22;12308;50.948;4.706;2024-03-25T01:02:54;5.20;99.90
24146;DHT22;12308;50.948;4.706;2024-03-25T01:05:19;5.20;99.90
24146;DHT22;12308;50.948;4.706;2024-03-25T01:07:45;5.10;99.90
24146;DHT22;12308;50.948;4.706;2024-03-25T01:10:11;5.10;99.90
24146;DHT22;12308;50.948;4.706;2024-03-25T01:12:36;5.00;99.90
24146;DHT22;12308;50.948;4.706;2024-03-25T01:15:02;5.00;99.90
24146;DHT22;12308;50.948;4.706;2024-03-25T01:17:28;5.00;99.90
24146;DHT22;12308;50.948;4.706;2024-03-25T01:19:54;5.00;99.90
24146;DHT22;12308;50.948;4.706;2024-03-25T01:22:19;5.10;99.90
24146;DHT22;12308;50.948;4.706;2024-03-25T01:24:45;5.00;99.90
24146;DHT22;12308;50.948;4.706;2024-03-25T01:27:11;4.90;99.90
24146;DHT22;12308;50.948;4.706;2024-03-25T01:29:36;4.70;99.90
24146;DHT22;12308;50.948;4.706;2024-03-25T01:32:02;4.70;99.90
24146;DHT22;12308;50.948;4.706;2024-03-25T01:34:29;4.70;99.90
24146;DHT22;12308;50.948;4.706;2024-03-25T01:36:55;4.60;99.90
24146;DHT22;12308;50.948;4.706;2024-03-25T01:39:21;4.60;99.90
24146;DHT22;12308;50.948;4.706;2024-03-25T01:41:47;4.50;99.90
24146;DHT22;12308;50.948;4.706;2024-03-25T01:44:12;4.50;99.90
24146;DHT22;12308;50.948;4.706;2024-03-25T01:46:39;4.50;99.90
24146;DHT22;12308;50.948;4.706;2024-03-25T01:49:05;4.50;99.90
24146;DHT22;12308;50.948;4.706;2024-03-25T01:51:31;4.50;99.90
24146;DHT22;12308;50.948;4.706;2024-03-25T01:53:59;4.40;99.90
24146;DHT22;12308;50.948;4.706;2024-03-25T01:56:25;4.20;99.90
24146;DHT22;12308;50.948;4.706;2024-03-25T01:58:51;4.20;99.90
24146;DHT22;12308;50.948;4.706;2024-03-25T02:01:18;4.20;99.90
24146;DHT22;12308;50.948;4.706;2024-03-25T02:03:45;4.20;99.90
24146;DHT22;12308;50.948;4.706;2024-03-25T02:06:15;4.20;99.90
24146;DHT22;12308;50.948;4.706;2024-03-25T02:08:43;4.20;99.90
24146;DHT22;12308;50.948;4.706;2024-03-25T02:11:10;4.20;99.90
24146;DHT22;12308;50.948;4.706;2024-03-25T02:13:39;4.10;99.90
24146;DHT22;12308;50.948;4.706;2024-03-25T02:16:05;4.10;99.90
24146;DHT22;12308;50.948;4.706;2024-03-25T02:18:31;4.10;99.90
24146;DHT22;12308;50.948;4.706;2024-03-25T02:20:57;4.10;99.90
24146;DHT22;12308;50.948;4.706;2024-03-25T02:23:23;4.10;99.90
24146;DHT22;12308;50.948;4.706;2024-03-25T02:25:52;3.90;99.90
24146;DHT22;12308;50.948;4.706;2024-03-25T02:28:19;3.90;99.90
24146;DHT22;12308;50.948;4.706;2024-03-25T02:30:44;4.00;99.90
24146;DHT22;12308;50.948;4.706;2024-03-25T02:33:10;4.00;99.90
24146;DHT22;12308;50.948;4.706;2024-03-25T02:35:37;4.00;99.90
24146;DHT22;12308;50.948;4.706;2024-03-25T02:38:05;4.00;99.90
24146;DHT22;12308;50.948;4.706;2024-03-25T02:40:31;4.10;99.90
24146;DHT22;12308;50.948;4.706;2024-03-25T02:42:57;4.10;99.90
24146;DHT22;12308;50.948;4.706;2024-03-25T02:45:23;4.10;99.90
24146;DHT22;12308;50.948;4.706;2024-03-25T02:47:50;4.10;99.90
24146;DHT22;12308;50.948;4.706;2024-03-25T02:50:16;4.10;99.90
24146;DHT22;12308;50.948;4.706;2024-03-25T02:52:42;4.10;99.90
24146;DHT22;12308;50.948;4.706;2024-03-25T02:55:07;4.00;99.90
24146;DHT22;12308;50.948;4.706;2024-03-25T02:57:33;4.00;99.90
24146;DHT22;12308;50.948;4.706;2024-03-25T02:59:59;4.10;99.90
24146;DHT22;12308;50.948;4.706;2024-03-25T03:02:25;4.10;99.90
24146;DHT22;12308;50.948;4.706;2024-03-25T03:04:50;4.00;99.90
24146;DHT22;12308;50.948;4.706;2024-03-25T03:07:16;4.00;99.90
24146;DHT22;12308;50.948;4.706;2024-03-25T03:09:42;4.10;99.90
24146;DHT22;12308;50.948;4.706;2024-03-25T03:12:08;4.10;99.90
24146;DHT22;12308;50.948;4.706;2024-03-25T03:14:34;4.10;99.90
24146;DHT22;12308;50.948;4.706;2024-03-25T03:16:59;4.10;99.90
24146;DHT22;12308;50.948;4.706;2024-03-25T03:19:30;4.10;99.90
24146;DHT22;12308;50.948;4.706;2024-03-25T03:21:56;4.20;99.90
24146;DHT22;12308;50.948;4.706;2024-03-25T03:24:22;4.10;99.90
24146;DHT22;12308;50.948;4.706;2024-03-25T03:26:48;4.10;99.90
24146;DHT22;12308;50.948;4.706;2024-03-25T03:29:14;4.10;99.90
24146;DHT22;12308;50.948;4.706;2024-03-25T03:31:40;4.00;99.90
24146;DHT22;12308;50.948;4.706;2024-03-25T03:34:06;3.90;99.90
24146;DHT22;12308;50.948;4.706;2024-03-25T03:36:32;3.90;99.90
24146;DHT22;12308;50.948;4.706;2024-03-25T03:38:57;3.90;99.90
24146;DHT22;12308;50.948;4.706;2024-03-25T03:41:23;3.90;99.90
24146;DHT22;12308;50.948;4.706;2024-03-25T03:43:49;3.90;99.90
24146;DHT22;12308;50.948;4.706;2024-03-25T03:46:14;3.90;99.90
24146;DHT22;12308;50.948;4.706;2024-03-25T03:48:40;3.90;99.90
24146;DHT22;12308;50.948;4.706;2024-03-25T03:51:07;4.00;99.90
24146;DHT22;12308;50.948;4.706;2024-03-25T03:53:34;3.90;99.90
24146;DHT22;12308;50.948;4.706;2024-03-25T03:56:02;3.90;99.90
24146;DHT22;12308;50.948;4.706;2024-03-25T03:58:28;3.90;99.90
24146;DHT22;12308;50.948;4.706;2024-03-25T04:00:54;3.90;99.90
24146;DHT22;12308;50.948;4.706;2024-03-25T04:03:20;4.00;99.90
24146;DHT22;12308;50.948;4.706;2024-03-25T04:05:46;3.90;99.90
24146;DHT22;12308;50.948;4.706;2024-03-25T04:08:12;4.00;99.90
24146;DHT22;12308;50.948;4.706;2024-03-25T04:10:38;4.00;99.90
24146;DHT22;12308;50.948;4.706;2024-03-25T04:13:04;3.90;99.90
24146;DHT22;12308;50.948;4.706;2024-03-25T04:15:40;3.90;99.90
24146;DHT22;12308;50.948;4.706;2024-03-25T04:18:06;3.90;99.90
24146;DHT22;12308;50.948;4.706;2024-03-25T04:20:39;3.90;99.90
24146;DHT22;12308;50.948;4.706;2024-03-25T04:23:06;3.90;99.90
24146;DHT22;12308;50.948;4.706;2024-03-25T04:25:33;3.90;99.90
24146;DHT22;12308;50.948;4.706;2024-03-25T04:27:59;3.90;99.90
24146;DHT22;12308;50.948;4.706;2024-03-25T04:30:25;3.80;99.90
24146;DHT22;12308;50.948;4.706;2024-03-25T04:32:51;3.80;99.90
24146;DHT22;12308;50.948;4.706;2024-03-25T04:35:17;3.80;99.90
24146;DHT22;12308;50.948;4.706;2024-03-25T04:37:42;3.80;99.90
24146;DHT22;12308;50.948;4.706;2024-03-25T04:40:10;3.70;99.90
24146;DHT22;12308;50.948;4.706;2024-03-25T04:42:35;3.80;99.90
24146;DHT22;12308;50.948;4.706;2024-03-25T04:45:02;3.70;99.90
24146;DHT22;12308;50.948;4.706;2024-03-25T04:47:27;3.70;99.90
24146;DHT22;12308;50.948;4.706;2024-03-25T04:49:53;3.70;99.90
24146;DHT22;12308;50.948;4.706;2024-03-25T04:52:19;3.70;99.90
24146;DHT22;12308;50.948;4.706;2024-03-25T04:54:49;3.70;99.90
24146;DHT22;12308;50.948;4.706;2024-03-25T04:57:14;3.80;99.90
24146;DHT22;12308;50.948;4.706;2024-03-25T04:59:40;3.70;99.90
24146;DHT22;12308;50.948;4.706;2024-03-25T05:02:06;3.70;99.90
24146;DHT22;12308;50.948;4.706;2024-03-25T05:04:32;3.70;99.90
24146;DHT22;12308;50.948;4.706;2024-03-25T05:06:57;3.60;99.90
24146;DHT22;12308;50.948;4.706;2024-03-25T05:09:23;3.70;99.90
24146;DHT22;12308;50.948;4.706;2024-03-25T05:11:49;3.70;99.90
24146;DHT22;12308;50.948;4.706;2024-03-25T05:14:14;3.70;99.90
24146;DHT22;12308;50.948;4.706;2024-03-25T05:16:40;3.70;99.90
24146;DHT22;12308;50.948;4.706;2024-03-25T05:19:06;3.70;99.90
24146;DHT22;12308;50.948;4.706;2024-03-25T05:21:32;3.60;99.90
24146;DHT22;12308;50.948;4.706;2024-03-25T05:23:58;3.60;99.90
24146;DHT22;12308;50.948;4.706;2024-03-25T05:26:23;3.50;99.90
24146;DHT22;12308;50.948;4.706;2024-03-25T05:28:53;3.50;99.90
24146;DHT22;12308;50.948;4.706;2024-03-25T05:31:19;3.50;99.90
24146;DHT22;12308;50.948;4.706;2024-03-25T05:33:45;3.60;99.90
24146;DHT22;12308;50.948;4.706;2024-03-25T05:36:11;3.60;99.90
24146;DHT22;12308;50.948;4.706;2024-03-25T05:38:36;3.60;99.90
24146;DHT22;12308;50.948;4.706;2024-03-25T05:41:02;3.60;99.90
24146;DHT22;12308;50.948;4.706;2024-03-25T05:43:28;3.60;99.90
24146;DHT22;12308;50.948;4.706;2024-03-25T05:45:54;3.60;99.90
24146;DHT22;12308;50.948;4.706;2024-03-25T05:48:20;3.60;99.90
24146;DHT22;12308;50.948;4.706;2024-03-25T05:50:46;3.70;99.90
24146;DHT22;12308;50.948;4.706;2024-03-25T05:53:12;3.70;99.90
24146;DHT22;12308;50.948;4.706;2024-03-25T05:55:38;3.90;99.90
24146;DHT22;12308;50.948;4.706;2024-03-25T05:58:04;4.00;99.90
24146;DHT22;12308;50.948;4.706;2024-03-25T06:00:30;4.00;99.90
24146;DHT22;12308;50.948;4.706;2024-03-25T06:02:56;4.00;99.90
24146;DHT22;12308;50.948;4.706;2024-03-25T06:05:22;4.10;99.90
24146;DHT22;12308;50.948;4.706;2024-03-25T06:07:48;4.20;99.90
24146;DHT22;12308;50.948;4.706;2024-03-25T06:10:14;4.20;99.90
24146;DHT22;12308;50.948;4.706;2024-03-25T06:12:40;4.20;99.90
24146;DHT22;12308;50.948;4.706;2024-03-25T06:15:06;4.30;99.90
24146;DHT22;12308;50.948;4.706;2024-03-25T06:17:32;4.40;99.90
24146;DHT22;12308;50.948;4.706;2024-03-25T06:19:58;4.40;99.90
24146;DHT22;12308;50.948;4.706;2024-03-25T06:22:23;4.60;99.90
24146;DHT22;12308;50.948;4.706;2024-03-25T06:24:49;4.80;99.90
24146;DHT22;12308;50.948;4.706;2024-03-25T06:27:16;5.00;99.90
24146;DHT22;12308;50.948;4.706;2024-03-25T06:29:42;5.10;99.90
24146;DHT22;12308;50.948;4.706;2024-03-25T06:32:09;5.30;99.90
24146;DHT22;12308;50.948;4.706;2024-03-25T06:34:53;5.50;99.90
24146;DHT22;12308;50.948;4.706;2024-03-25T06:37:19;5.60;99.90
24146;DHT22;12308;50.948;4.706;2024-03-25T06:39:45;5.70;99.90
24146;DHT22;12308;50.948;4.706;2024-03-25T06:42:10;5.80;99.90
24146;DHT22;12308;50.948;4.706;2024-03-25T06:44:36;5.90;99.90
24146;DHT22;12308;50.948;4.706;2024-03-25T06:47:02;6.00;99.90
24146;DHT22;12308;50.948;4.706;2024-03-25T06:49:28;6.10;99.90
24146;DHT22;12308;50.948;4.706;2024-03-25T06:51:54;6.20;99.90
24146;DHT22;12308;50.948;4.706;2024-03-25T06:54:20;6.40;99.90
24146;DHT22;12308;50.948;4.706;2024-03-25T06:56:45;6.30;99.90
24146;DHT22;12308;50.948;4.706;2024-03-25T06:59:11;6.30;99.90
24146;DHT22;12308;50.948;4.706;2024-03-25T07:01:36;6.40;99.90
24146;DHT22;12308;50.948;4.706;2024-03-25T07:04:02;6.50;99.90
24146;DHT22;12308;50.948;4.706;2024-03-25T07:06:28;6.50;99.90
24146;DHT22;12308;50.948;4.706;2024-03-25T07:08:54;6.60;99.90
24146;DHT22;12308;50.948;4.706;2024-03-25T07:11:20;6.60;99.90
24146;DHT22;12308;50.948;4.706;2024-03-25T07:13:46;6.70;99.90
24146;DHT22;12308;50.948;4.706;2024-03-25T07:16:11;6.80;99.90
24146;DHT22;12308;50.948;4.706;2024-03-25T07:18:37;7.00;99.90
24146;DHT22;12308;50.948;4.706;2024-03-25T07:21:03;7.00;99.90
24146;DHT22;12308;50.948;4.706;2024-03-25T07:23:28;7.00;99.90
24146;DHT22;12308;50.948;4.706;2024-03-25T07:25:54;7.00;99.90
24146;DHT22;12308;50.948;4.706;2024-03-25T07:28:20;7.10;99.90
24146;DHT22;12308;50.948;4.706;2024-03-25T07:30:46;7.30;99.90
24146;DHT22;12308;50.948;4.706;2024-03-25T07:33:12;7.40;99.90
24146;DHT22;12308;50.948;4.706;2024-03-25T07:35:38;7.50;99.90
24146;DHT22;12308;50.948;4.706;2024-03-25T07:38:03;7.60;99.90
24146;DHT22;12308;50.948;4.706;2024-03-25T07:40:29;7.70;99.90
24146;DHT22;12308;50.948;4.706;2024-03-25T07:42:55;7.80;99.90
24146;DHT22;12308;50.948;4.706;2024-03-25T07:45:22;7.90;99.90
24146;DHT22;12308;50.948;4.706;2024-03-25T07:47:47;8.00;99.90
24146;DHT22;12308;50.948;4.706;2024-03-25T07:50:13;8.10;99.90
24146;DHT22;12308;50.948;4.706;2024-03-25T07:52:40;8.30;99.90
24146;DHT22;12308;50.948;4.706;2024-03-25T07:55:09;8.40;99.90
24146;DHT22;12308;50.948;4.706;2024-03-25T07:57:35;8.50;99.90
24146;DHT22;12308;50.948;4.706;2024-03-25T08:00:01;8.70;99.90
24146;DHT22;12308;50.948;4.706;2024-03-25T08:02:26;8.60;99.90
24146;DHT22;12308;50.948;4.706;2024-03-25T08:04:52;8.70;99.90
24146;DHT22;12308;50.948;4.706;2024-03-25T08:07:18;8.70;99.90
24146;DHT22;12308;50.948;4.706;2024-03-25T08:09:43;8.70;99.90
24146;DHT22;12308;50.948;4.706;2024-03-25T08:12:09;8.80;99.90
24146;DHT22;12308;50.948;4.706;2024-03-25T08:14:35;9.00;99.90
24146;DHT22;12308;50.948;4.706;2024-03-25T08:17:01;9.10;99.90
24146;DHT22;12308;50.948;4.706;2024-03-25T08:19:28;9.10;99.90
24146;DHT22;12308;50.948;4.706;2024-03-25T08:21:53;9.30;99.90
24146;DHT22;12308;50.948;4.706;2024-03-25T08:24:19;9.20;99.90
24146;DHT22;12308;50.948;4.706;2024-03-25T08:26:45;9.10;99.90
24146;DHT22;12308;50.948;4.706;2024-03-25T08:29:10;9.10;99.90
24146;DHT22;12308;50.948;4.706;2024-03-25T08:31:36;9.20;99.90
24146;DHT22;12308;50.948;4.706;2024-03-25T08:34:02;9.00;99.90
24146;DHT22;12308;50.948;4.706;2024-03-25T08:36:27;8.90;99.90
24146;DHT22;12308;50.948;4.706;2024-03-25T08:38:53;8.90;99.90
24146;DHT22;12308;50.948;4.706;2024-03-25T08:41:19;8.80;99.90
24146;DHT22;12308;50.948;4.706;2024-03-25T08:43:44;8.90;99.90
24146;DHT22;12308;50.948;4.706;2024-03-25T08:46:10;8.90;99.90
24146;DHT22;12308;50.948;4.706;2024-03-25T08:48:36;9.00;99.90
24146;DHT22;12308;50.948;4.706;2024-03-25T08:51:01;9.00;99.90
24146;DHT22;12308;50.948;4.706;2024-03-25T08:53:27;9.00;99.90
24146;DHT22;12308;50.948;4.706;2024-03-25T08:55:53;9.30;99.90
24146;DHT22;12308;50.948;4.706;2024-03-25T08:58:18;9.20;99.90
24146;DHT22;12308;50.948;4.706;2024-03-25T09:00:44;9.10;99.90
24146;DHT22;12308;50.948;4.706;2024-03-25T09:03:10;9.30;99.90
24146;DHT22;12308;50.948;4.706;2024-03-25T09:05:38;9.30;99.90
24146;DHT22;12308;50.948;4.706;2024-03-25T09:08:05;9.30;99.90
24146;DHT22;12308;50.948;4.706;2024-03-25T09:10:32;9.50;99.90
24146;DHT22;12308;50.948;4.706;2024-03-25T09:13:16;9.50;99.90
24146;DHT22;12308;50.948;4.706;2024-03-25T09:15:42;9.50;99.90
24146;DHT22;12308;50.948;4.706;2024-03-25T09:18:08;9.50;99.90
24146;DHT22;12308;50.948;4.706;2024-03-25T09:20:33;9.60;99.90
24146;DHT22;12308;50.948;4.706;2024-03-25T09:22:59;9.80;99.90
24146;DHT22;12308;50.948;4.706;2024-03-25T09:25:25;9.70;99.90
24146;DHT22;12308;50.948;4.706;2024-03-25T09:27:51;9.80;99.90
24146;DHT22;12308;50.948;4.706;2024-03-25T09:30:17;9.90;99.90
24146;DHT22;12308;50.948;4.706;2024-03-25T09:32:45;9.90;99.90
24146;DHT22;12308;50.948;4.706;2024-03-25T09:35:12;10.00;99.90
24146;DHT22;12308;50.948;4.706;2024-03-25T09:37:38;10.10;99.90
24146;DHT22;12308;50.948;4.706;2024-03-25T09:40:04;10.20;99.90
24146;DHT22;12308;50.948;4.706;2024-03-25T09:42:46;10.30;99.90
24146;DHT22;12308;50.948;4.706;2024-03-25T09:45:14;10.40;99.90
24146;DHT22;12308;50.948;4.706;2024-03-25T09:47:45;10.40;99.90
24146;DHT22;12308;50.948;4.706;2024-03-25T09:50:15;10.60;99.90
24146;DHT22;12308;50.948;4.706;2024-03-25T09:52:45;10.60;99.90
24146;DHT22;12308;50.948;4.706;2024-03-25T09:55:11;10.70;99.90
24146;DHT22;12308;50.948;4.706;2024-03-25T09:57:37;10.80;99.90
24146;DHT22;12308;50.948;4.706;2024-03-25T10:00:05;10.90;99.90
24146;DHT22;12308;50.948;4.706;2024-03-25T10:02:33;11.00;99.90
24146;DHT22;12308;50.948;4.706;2024-03-25T10:04:59;11.00;99.90
24146;DHT22;12308;50.948;4.706;2024-03-25T10:07:25;11.10;99.90
24146;DHT22;12308;50.948;4.706;2024-03-25T10:09:51;11.20;99.90
24146;DHT22;12308;50.948;4.706;2024-03-25T10:12:17;11.20;99.90
24146;DHT22;12308;50.948;4.706;2024-03-25T10:14:43;11.20;99.90
24146;DHT22;12308;50.948;4.706;2024-03-25T10:17:09;11.20;99.90
24146;DHT22;12308;50.948;4.706;2024-03-25T10:19:35;11.30;99.90
24146;DHT22;12308;50.948;4.706;2024-03-25T10:22:10;11.20;99.90
24146;DHT22;12308;50.948;4.706;2024-03-25T10:24:45;11.20;99.90
24146;DHT22;12308;50.948;4.706;2024-03-25T10:27:21;11.40;99.90
24146;DHT22;12308;50.948;4.706;2024-03-25T10:29:47;11.50;99.90
24146;DHT22;12308;50.948;4.706;2024-03-25T10:32:14;11.50;99.90
24146;DHT22;12308;50.948;4.706;2024-03-25T10:34:40;11.50;99.90
24146;DHT22;12308;50.948;4.706;2024-03-25T10:37:09;11.50;99.90
24146;DHT22;12308;50.948;4.706;2024-03-25T10:39:39;11.50;99.90
24146;DHT22;12308;50.948;4.706;2024-03-25T10:42:06;11.60;99.90
24146;DHT22;12308;50.948;4.706;2024-03-25T10:44:33;11.70;99.90
24146;DHT22;12308;50.948;4.706;2024-03-25T10:47:01;11.80;99.90
24146;DHT22;12308;50.948;4.706;2024-03-25T10:49:38;11.90;99.90
24146;DHT22;12308;50.948;4.706;2024-03-25T10:52:08;11.80;99.90
24146;DHT22;12308;50.948;4.706;2024-03-25T10:54:35;11.90;99.90
24146;DHT22;12308;50.948;4.706;2024-03-25T10:57:03;12.00;99.90
24146;DHT22;12308;50.948;4.706;2024-03-25T10:59:30;12.00;99.90
24146;DHT22;12308;50.948;4.706;2024-03-25T11:01:56;12.10;99.90
24146;DHT22;12308;50.948;4.706;2024-03-25T11:04:23;12.10;99.90
24146;DHT22;12308;50.948;4.706;2024-03-25T11:06:50;12.10;99.90
24146;DHT22;12308;50.948;4.706;2024-03-25T11:09:23;12.30;99.90
24146;DHT22;12308;50.948;4.706;2024-03-25T11:11:52;12.40;99.90
24146;DHT22;12308;50.948;4.706;2024-03-25T11:14:18;12.60;99.90
24146;DHT22;12308;50.948;4.706;2024-03-25T11:16:54;12.90;99.90
24146;DHT22;12308;50.948;4.706;2024-03-25T11:19:24;13.00;99.90
24146;DHT22;12308;50.948;4.706;2024-03-25T11:21:50;13.10;99.90
24146;DHT22;12308;50.948;4.706;2024-03-25T11:24:29;13.10;99.90
24146;DHT22;12308;50.948;4.706;2024-03-25T11:26:56;13.10;99.90
24146;DHT22;12308;50.948;4.706;2024-03-25T11:29:22;13.30;99.90
24146;DHT22;12308;50.948;4.706;2024-03-25T11:31:49;13.20;99.90
24146;DHT22;12308;50.948;4.706;2024-03-25T11:34:15;13.30;99.90
24146;DHT22;12308;50.948;4.706;2024-03-25T11:36:41;13.30;99.90
24146;DHT22;12308;50.948;4.706;2024-03-25T11:39:07;13.20;99.90
24146;DHT22;12308;50.948;4.706;2024-03-25T11:41:44;13.40;99.90
24146;DHT22;12308;50.948;4.706;2024-03-25T11:44:11;13.50;99.90
24146;DHT22;12308;50.948;4.706;2024-03-25T11:46:39;13.50;99.90
24146;DHT22;12308;50.948;4.706;2024-03-25T11:49:17;13.40;99.90
24146;DHT22;12308;50.948;4.706;2024-03-25T11:51:44;13.40;99.90
24146;DHT22;12308;50.948;4.706;2024-03-25T11:54:12;13.60;99.90
24146;DHT22;12308;50.948;4.706;2024-03-25T11:56:38;13.90;99.90
24146;DHT22;12308;50.948;4.706;2024-03-25T11:59:04;14.00;99.90
24146;DHT22;12308;50.948;4.706;2024-03-25T12:01:31;14.20;99.90
24146;DHT22;12308;50.948;4.706;2024-03-25T12:03:56;14.10;99.90
24146;DHT22;12308;50.948;4.706;2024-03-25T12:06:22;14.30;99.90
24146;DHT22;12308;50.948;4.706;2024-03-25T12:08:48;14.30;99.90
24146;DHT22;12308;50.948;4.706;2024-03-25T12:11:33;14.40;99.90
24146;DHT22;12308;50.948;4.706;2024-03-25T12:14:00;14.40;99.90
24146;DHT22;12308;50.948;4.706;2024-03-25T12:16:26;14.40;99.90
24146;DHT22;12308;50.948;4.706;2024-03-25T12:18:53;14.60;99.90
24146;DHT22;12308;50.948;4.706;2024-03-25T12:21:19;14.50;99.90
24146;DHT22;12308;50.948;4.706;2024-03-25T12:23:47;14.60;99.90
24146;DHT22;12308;50.948;4.706;2024-03-25T12:26:13;14.40;99.90
24146;DHT22;12308;50.948;4.706;2024-03-25T12:28:40;14.40;99.90
24146;DHT22;12308;50.948;4.706;2024-03-25T12:31:09;14.40;99.90
24146;DHT22;12308;50.948;4.706;2024-03-25T12:33:43;14.40;99.90
24146;DHT22;12308;50.948;4.706;2024-03-25T12:36:11;14.40;99.90
24146;DHT22;12308;50.948;4.706;2024-03-25T12:38:37;14.60;99.90
24146;DHT22;12308;50.948;4.706;2024-03-25T12:41:11;14.90;99.90
24146;DHT22;12308;50.948;4.706;2024-03-25T12:43:46;15.00;99.90
24146;DHT22;12308;50.948;4.706;2024-03-25T12:46:12;15.00;99.90
24146;DHT22;12308;50.948;4.706;2024-03-25T12:48:38;14.90;99.90
24146;DHT22;12308;50.948;4.706;2024-03-25T12:51:15;15.10;99.90
24146;DHT22;12308;50.948;4.706;2024-03-25T12:53:41;15.30;99.90
24146;DHT22;12308;50.948;4.706;2024-03-25T12:56:07;15.30;99.90
24146;DHT22;12308;50.948;4.706;2024-03-25T12:58:33;15.20;99.90
24146;DHT22;12308;50.948;4.706;2024-03-25T13:00:59;14.90;99.90
24146;DHT22;12308;50.948;4.706;2024-03-25T13:03:25;14.70;99.90
24146;DHT22;12308;50.948;4.706;2024-03-25T13:05:51;14.70;99.90
24146;DHT22;12308;50.948;4.706;2024-03-25T13:08:16;14.90;99.90
24146;DHT22;12308;50.948;4.706;2024-03-25T13:10:43;14.80;99.90
24146;DHT22;12308;50.948;4.706;2024-03-25T13:13:09;14.90;99.90
24146;DHT22;12308;50.948;4.706;2024-03-25T13:15:35;14.80;99.90
24146;DHT22;12308;50.948;4.706;2024-03-25T13:18:01;14.70;99.90
24146;DHT22;12308;50.948;4.706;2024-03-25T13:20:26;14.70;99.90
24146;DHT22;12308;50.948;4.706;2024-03-25T13:22:54;14.70;99.90
24146;DHT22;12308;50.948;4.706;2024-03-25T13:25:25;14.60;99.90
24146;DHT22;12308;50.948;4.706;2024-03-25T13:27:50;14.70;99.90
24146;DHT22;12308;50.948;4.706;2024-03-25T13:30:16;14.70;99.90
24146;DHT22;12308;50.948;4.706;2024-03-25T13:32:42;14.60;99.90
24146;DHT22;12308;50.948;4.706;2024-03-25T13:35:08;14.60;99.90
24146;DHT22;12308;50.948;4.706;2024-03-25T13:37:33;14.40;99.90
24146;DHT22;12308;50.948;4.706;2024-03-25T13:39:59;14.20;99.90
24146;DHT22;12308;50.948;4.706;2024-03-25T13:42:25;14.10;99.90
24146;DHT22;12308;50.948;4.706;2024-03-25T13:44:50;14.20;99.90
24146;DHT22;12308;50.948;4.706;2024-03-25T13:47:16;14.40;99.90
24146;DHT22;12308;50.948;4.706;2024-03-25T13:49:41;14.40;99.90
24146;DHT22;12308;50.948;4.706;2024-03-25T13:52:07;14.10;99.90
24146;DHT22;12308;50.948;4.706;2024-03-25T13:54:33;14.20;99.90
24146;DHT22;12308;50.948;4.706;2024-03-25T13:56:59;14.10;99.90
24146;DHT22;12308;50.948;4.706;2024-03-25T13:59:24;14.00;99.90
24146;DHT22;12308;50.948;4.706;2024-03-25T14:01:50;14.10;99.90
24146;DHT22;12308;50.948;4.706;2024-03-25T14:04:17;14.20;99.90
24146;DHT22;12308;50.948;4.706;2024-03-25T14:06:43;14.20;99.90
24146;DHT22;12308;50.948;4.706;2024-03-25T14:09:22;14.50;99.90
24146;DHT22;12308;50.948;4.706;2024-03-25T14:11:49;14.70;99.90
24146;DHT22;12308;50.948;4.706;2024-03-25T14:14:15;14.50;99.90
24146;DHT22;12308;50.948;4.706;2024-03-25T14:16:41;14.50;99.90
24146;DHT22;12308;50.948;4.706;2024-03-25T14:19:06;14.60;99.90
24146;DHT22;12308;50.948;4.706;2024-03-25T14:21:32;14.70;99.90
24146;DHT22;12308;50.948;4.706;2024-03-25T14:23:58;14.90;99.90
24146;DHT22;12308;50.948;4.706;2024-03-25T14:26:23;14.90;99.90
24146;DHT22;12308;50.948;4.706;2024-03-25T14:28:49;14.60;99.90
24146;DHT22;12308;50.948;4.706;2024-03-25T14:31:15;14.40;99.90
24146;DHT22;12308;50.948;4.706;2024-03-25T14:33:41;14.40;99.90
24146;DHT22;12308;50.948;4.706;2024-03-25T14:36:06;14.20;99.90
24146;DHT22;12308;50.948;4.706;2024-03-25T14:38:32;14.10;99.90
24146;DHT22;12308;50.948;4.706;2024-03-25T14:40:59;14.20;99.90
24146;DHT22;12308;50.948;4.706;2024-03-25T14:43:25;14.10;99.90
24146;DHT22;12308;50.948;4.706;2024-03-25T14:45:51;14.00;99.90
24146;DHT22;12308;50.948;4.706;2024-03-25T14:48:16;14.00;99.90
24146;DHT22;12308;50.948;4.706;2024-03-25T14:50:42;14.10;99.90
24146;DHT22;12308;50.948;4.706;2024-03-25T14:53:08;14.30;99.90
24146;DHT22;12308;50.948;4.706;2024-03-25T14:55:33;14.40;99.90
24146;DHT22;12308;50.948;4.706;2024-03-25T14:57:59;14.50;99.90
24146;DHT22;12308;50.948;4.706;2024-03-25T15:00:25;14.60;99.90
24146;DHT22;12308;50.948;4.706;2024-03-25T15:02:53;14.50;99.90
24146;DHT22;12308;50.948;4.706;2024-03-25T15:05:20;14.40;99.90
24146;DHT22;12308;50.948;4.706;2024-03-25T15:07:46;14.40;99.90
24146;DHT22;12308;50.948;4.706;2024-03-25T15:10:11;14.50;99.90
24146;DHT22;12308;50.948;4.706;2024-03-25T15:12:38;14.20;99.90
24146;DHT22;12308;50.948;4.706;2024-03-25T15:15:04;14.10;99.90
24146;DHT22;12308;50.948;4.706;2024-03-25T15:17:35;14.10;99.90
24146;DHT22;12308;50.948;4.706;2024-03-25T15:20:01;14.00;99.90
24146;DHT22;12308;50.948;4.706;2024-03-25T15:22:27;14.00;99.90
24146;DHT22;12308;50.948;4.706;2024-03-25T15:24:52;13.90;99.90
24146;DHT22;12308;50.948;4.706;2024-03-25T15:27:18;13.80;99.90
24146;DHT22;12308;50.948;4.706;2024-03-25T15:29:43;13.60;99.90
24146;DHT22;12308;50.948;4.706;2024-03-25T15:32:09;13.50;99.90
24146;DHT22;12308;50.948;4.706;2024-03-25T15:34:36;13.40;99.90
24146;DHT22;12308;50.948;4.706;2024-03-25T15:37:01;13.60;99.90